Philip Airport


Codes: KPHP/
Name: Philip Airport
City: Philip
Country: United States
Elevation: 2207 ft.

Photos at Philip Airport


   Photos courtesy of SpottingLog. You can add your own sightings and photos by signing up for a free trial today.



No photos found.

Weather at Philip Airport


Time (UTC)DescriptionTempratureWindCloud coverageVisibilityPressureHumidity
16-Jun-2024 00:00Clear Sky36°C13 mph, SW0%10000m1000hPa26%
16-Jun-2024 03:00Light Rain31°C13 mph, S33%10000m1000hPa41%
16-Jun-2024 06:00Scattered Clouds25°C9 mph, SE41%10000m999hPa59%
16-Jun-2024 09:00Few Clouds18°C31 mph, NW22%10000m1001hPa75%
16-Jun-2024 12:00Scattered Clouds16°C18 mph, NW46%10000m1007hPa62%
16-Jun-2024 15:00Overcast Clouds19°C18 mph, N97%10000m1008hPa37%
16-Jun-2024 18:00Broken Clouds24°C11 mph, N77%10000m1007hPa23%
16-Jun-2024 21:00Overcast Clouds25°C7 mph, N95%10000m1006hPa23%
17-Jun-2024 00:00Broken Clouds25°C9 mph, NE74%10000m1006hPa26%
17-Jun-2024 03:00Broken Clouds19°C11 mph, E57%10000m1007hPa41%
17-Jun-2024 06:00Light Rain16°C4 mph, SE38%10000m1008hPa67%
17-Jun-2024 09:00Light Rain16°C9 mph, E70%10000m1007hPa84%
17-Jun-2024 12:00Light Rain15°C13 mph, NE85%10000m1006hPa84%
17-Jun-2024 15:00Light Rain14°C13 mph, E100%10000m1005hPa92%
17-Jun-2024 18:00Light Rain13°C11 mph, E100%10000m1003hPa94%
17-Jun-2024 21:00Light Rain14°C11 mph, E100%391m1001hPa95%
18-Jun-2024 00:00Overcast Clouds14°C7 mph, N100%0m998hPa95%
18-Jun-2024 03:00Overcast Clouds14°C7 mph, NE100%9485m999hPa97%
18-Jun-2024 06:00Light Rain14°C16 mph, N100%10000m998hPa95%
18-Jun-2024 09:00Light Rain14°C16 mph, NW100%10000m1001hPa94%
18-Jun-2024 12:00Light Rain14°C16 mph, NW100%10000m1004hPa90%
18-Jun-2024 15:00Overcast Clouds15°C25 mph, NW95%10000m1008hPa68%
18-Jun-2024 18:00Broken Clouds19°C25 mph, NW72%10000m1010hPa50%
18-Jun-2024 21:00Scattered Clouds18°C20 mph, NW49%10000m1013hPa47%
19-Jun-2024 00:00Broken Clouds17°C16 mph, N58%10000m1016hPa50%
19-Jun-2024 03:00Scattered Clouds12°C9 mph, N41%10000m1019hPa69%
19-Jun-2024 06:00Few Clouds10°C4 mph, NE23%10000m1022hPa79%
19-Jun-2024 09:00Scattered Clouds9°C4 mph, SW32%10000m1023hPa81%
19-Jun-2024 12:00Few Clouds10°C4 mph, NW18%10000m1024hPa77%
19-Jun-2024 15:00Broken Clouds16°C4 mph, SE54%10000m1023hPa52%
19-Jun-2024 18:00Broken Clouds20°C9 mph, SE69%10000m1022hPa42%
19-Jun-2024 21:00Scattered Clouds23°C11 mph, SE27%10000m1020hPa36%
20-Jun-2024 00:00Few Clouds23°C13 mph, SE14%10000m1019hPa37%
20-Jun-2024 03:00Clear Sky17°C13 mph, SE6%10000m1021hPa58%
20-Jun-2024 06:00Clear Sky15°C13 mph, SE7%10000m1022hPa74%
20-Jun-2024 09:00Broken Clouds14°C9 mph, SE76%10000m1021hPa87%
20-Jun-2024 12:00Overcast Clouds14°C7 mph, SE88%10000m1020hPa88%
20-Jun-2024 15:00Overcast Clouds18°C13 mph, SE100%10000m1019hPa79%
20-Jun-2024 18:00Light Rain20°C16 mph, SE100%10000m1017hPa78%
20-Jun-2024 21:00Light Rain21°C16 mph, SE100%10000m1014hPa83%